Main page
METAR-TAF:

METAR-TAF

Airports :

Burgas, Bulgaria

Burgas Airport

latitude: 42-29N, longitude: 027-29E, elevation: 16 m

Current weather observation

The report was made 33 minutes ago, at 13:30 UTC
Wind 14 kt from the East/Southeast
Temperature 21°C
Humidity 60%
Pressure 1014 hPa
Visibility 10 km or more
no clouds below 1500 m and no cumulonimbus

METAR: LBBG 211330Z 11014KT CAVOK 21/13 Q1014 NOSIG

Time: 17:03 (14:03 UTC)

Forecast

The report was made 3 hours and 3 minutes ago, at 11:00 UTC
Forecast valid from 21 at 12 UTC to 22 at 12 UTC
Wind 10 kt from the East/Southeast
Visibility 10 km or more
no clouds below 1500 m and no cumulonimbus
Becoming
from 21 at 19 UTC to 21 at 21 UTC
Wind 8 kt from the West
Probability 30% :
Temporary
from 22 at 03 UTC to 22 at 06 UTC
Visibility: 2000 m
Broken clouds at a height of 800 ft
mist
Becoming
from 22 at 10 UTC to 22 at 11 UTC
Wind 10 kt from the East

TAF: LBBG 211100Z 2112/2212 12010KT CAVOK BECMG 2119/2121 27008KT PROB30 TEMPO 2203/2206 2000 BR BKN008 BECMG 2210/2211 08010KT

Weather observations and forecasts of more than 4000 airports (METAR and TAF reports).

The available stations are represented by yellow and red dots on the map.

Hover mouse over dot to see the name of the station.

Then click to see weather observations and forecasts.

To change the map : click on the green buttons with a black cross to zoom in, on the green button with a dash to zoom out, or on the green arrows for adjacent maps.


METAR-TAF: